Linda Lee Bouchard — WDD4370 — position and weather

sailwx.info

Track history (hours):
 
Tides and Currents Weather Stations Pressure Air Temp Water Temp Dewpoint Dewpoint Depression Visibility Wind Speed Wind Dir Waves Ship Positions

Linda Lee Bouchard

Owner: LINDA LEE BOUCHARD, Melville, NY. More information available from US FCC via Universal Licensing System and Coast Guard Vessel Documentation Center.

Last reported at 2017-Nov-17 22:56 UTC. Time now 2017-Nov-22 14:45 UTC.
Position N 34°12' W 077°57'.

Length 162 m; draft 5.9 m.

Type: . MMSI: 367115000.

Date/timePositionNaut miles runAvg speedWind from/ knotsBaromVisibWave heightAir tempDewpointWater temp
2017-Nov-17 22:56N 34°12' W 077°57'445 8.7
2017-Nov-15 19:52N 26°60' W 079°58'3 9.2
2017-Nov-15 19:30N 26°56' W 079°58'6 8.8
2017-Nov-15 18:50N 26°50' W 079°58'3 8.3
2017-Nov-15 18:31N 26°48' W 079°58'4 8.5
2017-Nov-15 18:00N 26°44' W 079°58'4 8.8
2017-Nov-15 17:30N 26°39' W 079°57'4 8.1
2017-Nov-15 17:00N 26°35' W 079°58'4 8.3
2017-Nov-15 16:29N 26°31' W 079°58'12 9.0
2017-Nov-15 15:09N 26°19' W 079°59'1 9.5
2017-Nov-15 15:00N 26°17' W 079°59'5 9.3
2017-Nov-15 14:30N 26°13' W 079°59'5 9.2
2017-Nov-15 14:00N 26°08' W 079°58'4 8.7
2017-Nov-15 13:30N 26°04' W 079°58'5 9.2
2017-Nov-15 13:00N 25°60' W 079°56'5 9.3
2017-Nov-15 12:30N 25°55' W 079°55'4 9.1
2017-Nov-15 12:00N 25°51' W 079°55'5 9.4
2017-Nov-15 11:30N 25°46' W 079°55'5 9.8
2017-Nov-15 11:00N 25°41' W 079°56'5 9.9
2017-Nov-15 10:30N 25°36' W 079°57'510.1
2017-Nov-15 09:58N 25°31' W 079°58'  
Track history (hours):
 
Tides and Currents Weather Stations Pressure Air Temp Water Temp Dewpoint Dewpoint Depression Visibility Wind Speed Wind Dir Waves Ship Positions

Linda Lee Bouchard

Owner: LINDA LEE BOUCHARD, Melville, NY. More information available from US FCC via Universal Licensing System and Coast Guard Vessel Documentation Center.

Last reported at 2017-Nov-17 22:56 UTC. Time now 2017-Nov-22 14:45 UTC.
Position N 34°12' W 077°57'.

Length 162 m; draft 5.9 m.

Type: . MMSI: 367115000.

Date/timePositionNaut miles runAvg speedWind from/ knotsBaromVisibWave heightAir tempDewpointWater temp
2017-Nov-17 22:56N 34°12' W 077°57'445 8.7
2017-Nov-15 19:52N 26°60' W 079°58'3 9.2
2017-Nov-15 19:30N 26°56' W 079°58'6 8.8
2017-Nov-15 18:50N 26°50' W 079°58'3 8.3
2017-Nov-15 18:31N 26°48' W 079°58'4 8.5
2017-Nov-15 18:00N 26°44' W 079°58'4 8.8
2017-Nov-15 17:30N 26°39' W 079°57'4 8.1
2017-Nov-15 17:00N 26°35' W 079°58'4 8.3
2017-Nov-15 16:29N 26°31' W 079°58'12 9.0
2017-Nov-15 15:09N 26°19' W 079°59'1 9.5
2017-Nov-15 15:00N 26°17' W 079°59'5 9.3
2017-Nov-15 14:30N 26°13' W 079°59'5 9.2
2017-Nov-15 14:00N 26°08' W 079°58'4 8.7
2017-Nov-15 13:30N 26°04' W 079°58'5 9.2
2017-Nov-15 13:00N 25°60' W 079°56'5 9.3
2017-Nov-15 12:30N 25°55' W 079°55'4 9.1
2017-Nov-15 12:00N 25°51' W 079°55'5 9.4
2017-Nov-15 11:30N 25°46' W 079°55'5 9.8
2017-Nov-15 11:00N 25°41' W 079°56'5 9.9
2017-Nov-15 10:30N 25°36' W 079°57'510.1
2017-Nov-15 09:58N 25°31' W 079°58'  

Dump ship's entire track history